Time;durP1;ratioP1;P1;durP2;ratioP2;P2;SDS_P1;SDS_P2;PMS_P1;PMS_P2;Temp;Humidity;BMP_temperature;BMP_pressure;BME280_temperature;BME280_humidity;BME280_pressure;Samples;Min_cycle;Max_cycle;Signal;HPM_P1;HPM_P2
2023/04/29 00:07:07;;;;;;;2.70;2.50;;;;;;;20.63;55.98;100955.31;19880401;29;20051;-70
2023/04/29 00:17:09;;;;;;;4.38;3.05;;;;;;;20.60;55.86;100949.38;19873461;29;20051;-70
2023/04/29 00:27:11;;;;;;;3.65;2.95;;;;;;;20.58;55.70;100965.72;19881406;29;20072;-70
2023/04/29 00:37:13;;;;;;;2.97;2.45;;;;;;;20.56;55.54;100973.16;19879831;29;20661;-70
2023/04/29 00:47:14;;;;;;;3.03;2.72;;;;;;;20.51;55.31;100983.56;19893621;29;20058;-70
2023/04/29 00:57:18;;;;;;;3.75;3.20;;;;;;;20.46;55.14;100996.69;19881264;29;20086;-69
2023/04/29 01:07:46;;;;;;;4.22;3.42;;;;;;;20.49;55.08;101018.88;19862387;29;20047;-69
2023/04/29 01:18:15;;;;;;;4.45;3.25;;;;;;;20.48;54.88;101036.09;19883662;29;20054;-69
2023/04/29 01:28:39;;;;;;;4.68;3.58;;;;;;;20.46;54.91;101045.38;19891575;29;20070;-70
2023/04/29 01:39:07;;;;;;;5.20;3.50;;;;;;;20.45;54.63;101055.34;19902992;29;20108;-69
2023/04/29 01:49:09;;;;;;;4.50;3.38;;;;;;;20.43;54.54;101068.16;19899030;29;20054;-69
2023/04/29 01:59:11;;;;;;;4.65;3.67;;;;;;;20.42;54.48;101086.25;19889850;29;20126;-70
2023/04/29 02:09:31;;;;;;;5.13;4.22;;;;;;;20.41;54.34;101106.16;19889631;29;20058;-70
2023/04/29 02:19:41;;;;;;;3.38;3.08;;;;;;;20.40;54.20;101118.00;19891152;29;20120;-70
2023/04/29 02:29:43;;;;;;;4.25;3.85;;;;;;;20.39;54.03;101134.34;19878148;29;20054;-69
2023/04/29 02:39:45;;;;;;;4.43;2.92;;;;;;;20.37;53.89;101144.47;19871177;29;20134;-69
2023/04/29 02:49:47;;;;;;;3.28;2.92;;;;;;;20.36;53.76;101158.97;19868951;29;20149;-69
2023/04/29 02:59:50;;;;;;;3.25;2.88;;;;;;;20.34;53.62;101166.38;19882066;29;20062;-69
2023/04/29 03:09:52;;;;;;;2.53;2.25;;;;;;;20.33;53.56;101186.31;19874319;29;20046;-69
2023/04/29 03:19:54;;;;;;;4.88;2.42;;;;;;;20.33;53.41;101197.13;19860632;29;20051;-69
2023/04/29 03:29:56;;;;;;;3.00;2.30;;;;;;;20.32;53.12;101204.38;19865304;29;20055;-69
2023/04/29 03:39:58;;;;;;;3.50;2.35;;;;;;;20.31;53.13;101216.19;19873200;29;20085;-69
2023/04/29 03:50:00;;;;;;;2.78;2.35;;;;;;;20.32;53.12;101225.16;19867060;29;20042;-69
2023/04/29 04:00:02;;;;;;;3.38;2.42;;;;;;;20.30;52.77;101225.28;19853428;29;20051;-70
2023/04/29 04:10:13;;;;;;;2.42;2.20;;;;;;;20.31;52.73;101245.09;19869005;29;20382;-69
2023/04/29 04:20:16;;;;;;;2.55;2.35;;;;;;;20.29;52.66;101266.84;19874584;29;20561;-69
2023/04/29 04:30:18;;;;;;;3.25;2.30;;;;;;;20.23;52.49;101270.13;19877062;29;20047;-69
2023/04/29 04:40:20;;;;;;;2.75;2.00;;;;;;;20.28;52.35;101284.06;19883891;29;20059;-69
2023/04/29 04:50:49;;;;;;;2.83;1.92;;;;;;;20.27;52.24;101303.97;19885743;29;20058;-70
2023/04/29 05:00:51;;;;;;;2.22;2.03;;;;;;;20.26;52.16;101313.09;19884731;29;20080;-69
2023/04/29 05:10:53;;;;;;;1.60;1.50;;;;;;;20.24;51.97;101328.59;19896767;29;20536;-69
2023/04/29 05:20:55;;;;;;;1.60;1.48;;;;;;;20.23;51.88;101329.59;19874238;29;20058;-69
2023/04/29 05:30:58;;;;;;;2.85;1.77;;;;;;;20.21;51.95;101348.69;19888990;29;20051;-68
2023/04/29 05:41:00;;;;;;;3.00;1.67;;;;;;;20.21;53.42;101356.78;19887107;29;20058;-67
2023/04/29 05:51:01;;;;;;;2.10;1.50;;;;;;;20.22;54.23;101365.75;19881998;29;20104;-70
2023/04/29 06:01:04;;;;;;;2.92;1.77;;;;;;;20.22;53.79;101387.38;19920428;29;20051;-69
2023/04/29 06:11:06;;;;;;;1.30;1.20;;;;;;;20.21;53.99;101394.63;19877221;29;20054;-70
2023/04/29 06:21:07;;;;;;;1.65;1.30;;;;;;;20.22;54.63;101399.06;19865820;29;20058;-71
2023/04/29 06:31:10;;;;;;;2.33;1.48;;;;;;;20.23;54.64;101416.09;19870009;29;20208;-70
2023/04/29 06:41:12;;;;;;;2.33;1.40;;;;;;;20.22;54.43;101434.19;19891342;29;20055;-70
2023/04/29 06:51:27;;;;;;;2.00;1.43;;;;;;;20.21;54.10;101447.84;19905358;29;20119;-70
2023/04/29 07:01:31;;;;;;;2.80;1.52;;;;;;;20.21;53.70;101453.25;19890715;29;20412;-70
2023/04/29 07:11:33;;;;;;;2.35;1.58;;;;;;;20.26;53.39;101473.47;19889951;29;20466;-70
2023/04/29 07:21:35;;;;;;;2.08;1.55;;;;;;;20.31;53.00;101475.75;19889227;29;20047;-70
2023/04/29 07:31:37;;;;;;;1.95;1.17;;;;;;;20.42;52.69;101494.59;19903278;29;20515;-70
2023/04/29 07:41:39;;;;;;;2.40;1.50;;;;;;;20.56;52.43;101506.00;19902486;29;20076;-70
2023/04/29 07:51:41;;;;;;;2.35;1.60;;;;;;;20.71;51.85;101526.22;19887009;29;20412;-70
2023/04/29 08:01:44;;;;;;;2.50;1.75;;;;;;;20.82;51.15;101532.56;19887754;29;20073;-70
2023/04/29 08:11:46;;;;;;;2.40;1.63;;;;;;;20.95;50.73;101554.78;19873999;29;20095;-70
2023/04/29 08:21:48;;;;;;;2.03;1.52;;;;;;;21.07;50.70;101568.19;19885681;29;20061;-70
2023/04/29 08:31:49;;;;;;;2.42;1.10;;;;;;;21.15;50.67;101568.31;19884978;29;20051;-70
2023/04/29 08:41:52;;;;;;;1.10;1.00;;;;;;;21.18;50.47;101573.47;19897239;29;20058;-70
2023/04/29 08:51:54;;;;;;;2.35;1.00;;;;;;;21.22;50.36;101596.56;19885731;29;20446;-70
2023/04/29 09:01:57;;;;;;;2.05;0.95;;;;;;;21.25;50.24;101601.72;19883426;29;20058;-70
2023/04/29 09:11:59;;;;;;;1.00;0.90;;;;;;;21.28;50.21;101604.13;19883742;29;20055;-70
2023/04/29 09:22:06;;;;;;;1.48;1.08;;;;;;;21.26;49.94;101616.97;19884261;29;20089;-71
2023/04/29 09:32:19;;;;;;;2.08;1.10;;;;;;;21.30;49.81;101617.50;19883139;29;20065;-70
2023/04/29 09:42:21;;;;;;;1.48;1.00;;;;;;;21.34;49.64;101620.81;19894914;29;20089;-70
2023/04/29 09:52:23;;;;;;;0.95;0.85;;;;;;;21.37;49.41;101617.81;19897552;29;20524;-70
2023/04/29 10:02:26;;;;;;;1.33;0.90;;;;;;;21.40;49.31;101628.34;19894773;29;20054;-70
2023/04/29 10:12:29;;;;;;;1.73;1.20;;;;;;;21.39;49.19;101635.59;19895122;29;20058;-70
2023/04/29 10:22:50;;;;;;;1.80;1.10;;;;;;;21.42;49.07;101642.63;19891383;29;20059;-70
2023/04/29 10:32:52;;;;;;;1.90;1.52;;;;;;;21.42;48.78;101648.03;19874515;29;20083;-70
2023/04/29 10:42:54;;;;;;;1.90;1.23;;;;;;;21.40;48.57;101652.72;19883086;29;20058;-70
2023/04/29 10:52:57;;;;;;;1.35;1.20;;;;;;;21.35;48.04;101646.88;19888581;29;20066;-70
2023/04/29 11:03:00;;;;;;;0.82;0.80;;;;;;;21.40;48.13;101645.44;19888707;29;20066;-70
2023/04/29 11:13:27;;;;;;;0.95;0.90;;;;;;;21.43;47.82;101639.78;19883336;29;20055;-70
2023/04/29 11:23:30;;;;;;;1.25;1.15;;;;;;;21.42;47.78;101642.63;19869748;29;20055;-71
2023/04/29 11:33:32;;;;;;;1.60;1.00;;;;;;;21.52;47.65;101651.59;19861058;29;20120;-70
2023/04/29 11:43:34;;;;;;;1.33;1.00;;;;;;;21.57;47.60;101653.88;19861426;29;20043;-71
2023/04/29 11:53:36;;;;;;;1.35;1.00;;;;;;;21.59;47.51;101655.44;19862088;29;20565;-71
2023/04/29 12:03:38;;;;;;;1.42;1.00;;;;;;;21.64;47.59;101656.88;19861467;29;20054;-70
2023/04/29 12:13:40;;;;;;;1.83;1.08;;;;;;;21.66;47.42;101677.44;19853906;29;20043;-70
2023/04/29 12:23:42;;;;;;;0.65;0.65;;;;;;;21.66;47.49;101671.19;19858436;29;20062;-70
2023/04/29 12:33:44;;;;;;;0.98;0.82;;;;;;;21.67;47.54;101678.31;19876978;29;20051;-69
2023/04/29 12:43:48;;;;;;;1.60;0.90;;;;;;;21.67;47.69;101678.31;19875136;29;20126;-70
2023/04/29 12:53:50;;;;;;;;;;;;;;;21.69;47.61;101676.31;19867012;29;20178;-70
2023/04/29 13:03:52;;;;;;;2.05;0.98;;;;;;;21.70;47.43;101687.00;19862629;29;20079;-70
2023/04/29 13:13:55;;;;;;;1.95;1.00;;;;;;;21.72;47.37;101692.28;19855188;29;20055;-70
2023/04/29 13:23:56;;;;;;;2.03;1.00;;;;;;;21.74;46.92;101695.72;19875369;29;20090;-70
2023/04/29 13:33:58;;;;;;;2.00;0.63;;;;;;;21.73;46.68;101699.41;19888113;29;20058;-69
2023/04/29 13:44:00;;;;;;;1.15;0.90;;;;;;;21.75;46.73;101701.97;19881258;29;20058;-69
2023/04/29 13:54:03;;;;;;;1.08;0.80;;;;;;;21.75;46.64;101710.97;19885345;29;20720;-71
2023/04/29 14:04:07;;;;;;;0.73;0.60;;;;;;;21.75;46.57;101727.22;19884491;29;21028;-71
2023/04/29 14:14:09;;;;;;;2.13;0.80;;;;;;;21.75;46.62;101729.06;19869314;29;20051;-70
2023/04/29 14:24:11;;;;;;;0.63;0.63;;;;;;;21.73;46.36;101749.03;19884284;29;20062;-69
2023/04/29 14:34:13;;;;;;;0.85;0.60;;;;;;;21.73;46.18;101748.19;19867613;29;20504;-69
2023/04/29 14:44:15;;;;;;;0.70;0.70;;;;;;;21.73;46.32;101764.47;19847176;29;20054;-67
2023/04/29 14:54:17;;;;;;;2.03;0.60;;;;;;;21.72;46.58;101762.75;19866332;29;20154;-73
2023/04/29 15:04:18;;;;;;;0.77;0.60;;;;;;;21.74;48.58;101777.00;19862699;29;20062;-78
2023/04/29 15:14:20;;;;;;;1.27;0.60;;;;;;;21.80;49.35;101776.44;19846878;29;20504;-75
2023/04/29 15:24:22;;;;;;;0.80;0.80;;;;;;;21.90;52.40;101792.72;19838159;29;20051;-74
2023/04/29 15:34:24;;;;;;;1.50;0.80;;;;;;;21.97;53.19;101793.88;19848931;29;20142;-75
2023/04/29 15:44:25;;;;;;;1.02;0.90;;;;;;;21.95;52.68;101797.69;19853820;29;20138;-73
2023/04/29 15:54:27;;;;;;;1.05;0.93;;;;;;;21.94;52.37;101820.41;19849819;29;20107;-71
2023/04/29 16:04:30;;;;;;;1.88;0.70;;;;;;;21.88;51.97;101825.38;19862690;29;20133;-71
2023/04/29 16:14:32;;;;;;;2.25;1.05;;;;;;;21.82;51.42;101831.38;19858572;29;20058;-72
2023/04/29 16:24:33;;;;;;;0.70;0.70;;;;;;;21.78;51.76;101839.91;19857144;29;20086;-72
2023/04/29 16:34:36;;;;;;;1.13;1.00;;;;;;;21.72;51.50;101839.47;19853402;29;20063;-71
2023/04/29 16:44:37;;;;;;;1.27;0.88;;;;;;;21.67;51.15;101857.16;19857307;29;20059;-69
2023/04/29 16:54:40;;;;;;;0.90;0.80;;;;;;;21.64;50.76;101857.41;19851375;29;20146;-69
2023/04/29 17:04:42;;;;;;;0.90;0.80;;;;;;;21.59;50.50;101855.94;19841647;29;20063;-69
2023/04/29 17:14:44;;;;;;;1.00;0.80;;;;;;;21.56;50.49;101869.75;19848870;29;20085;-71
2023/04/29 17:24:45;;;;;;;1.15;0.88;;;;;;;21.55;50.20;101875.34;19852515;29;20290;-71
2023/04/29 17:34:47;;;;;;;3.28;0.90;;;;;;;21.51;49.67;101891.00;19863793;29;20066;-70
2023/04/29 17:44:49;;;;;;;0.77;0.65;;;;;;;21.44;49.29;101879.00;19856269;29;20492;-70
2023/04/29 17:54:51;;;;;;;2.08;0.90;;;;;;;21.42;49.03;101886.41;19863556;29;20055;-70
2023/04/29 18:04:52;;;;;;;2.30;1.65;;;;;;;21.38;48.96;101906.63;19875644;29;20089;-70
2023/04/29 18:14:54;;;;;;;1.65;1.02;;;;;;;21.34;48.54;101902.47;19877171;29;20517;-70
2023/04/29 18:24:56;;;;;;;1.00;0.80;;;;;;;21.30;48.39;101902.75;19873191;29;20412;-70
2023/04/29 18:35:01;;;;;;;;;;;;;;;21.26;48.30;101904.00;19875071;29;20134;-70
2023/04/29 18:45:02;;;;;;;1.33;0.80;;;;;;;21.22;48.39;101923.38;19873199;29;20394;-69
2023/04/29 18:55:05;;;;;;;1.27;0.82;;;;;;;21.18;48.32;101927.34;19871331;29;20130;-70
2023/04/29 19:05:09;;;;;;;0.77;0.70;;;;;;;21.14;48.21;101942.97;19870950;29;20586;-70
2023/04/29 19:15:12;;;;;;;0.88;0.73;;;;;;;21.10;48.20;101955.06;19872849;29;20058;-70
2023/04/29 19:25:13;;;;;;;0.73;0.70;;;;;;;21.05;48.15;101951.91;19870679;29;20124;-70
2023/04/29 19:35:15;;;;;;;0.73;0.70;;;;;;;20.99;48.07;101956.84;19869848;29;20063;-70
2023/04/29 19:45:17;;;;;;;0.75;0.75;;;;;;;20.98;48.06;101967.78;19867916;29;20051;-70
2023/04/29 19:55:19;;;;;;;0.60;0.60;;;;;;;20.95;48.03;101971.63;19868702;29;20142;-70
2023/04/29 20:05:21;;;;;;;0.95;0.68;;;;;;;20.91;47.97;101972.00;19861184;29;20084;-70
2023/04/29 20:15:23;;;;;;;0.95;0.70;;;;;;;20.88;47.94;101978.56;19869371;29;20466;-70
2023/04/29 20:25:25;;;;;;;1.42;0.70;;;;;;;20.85;47.75;101976.13;19865603;29;20123;-70
2023/04/29 20:35:28;;;;;;;0.77;0.73;;;;;;;20.82;47.70;101985.34;19867969;29;20058;-69
2023/04/29 20:45:30;;;;;;;1.63;0.60;;;;;;;20.80;47.60;101991.91;19865943;29;20047;-70
2023/04/29 20:55:32;;;;;;;0.43;0.43;;;;;;;20.78;47.49;101997.38;19865744;29;20100;-70
2023/04/29 21:05:33;;;;;;;0.75;0.60;;;;;;;20.75;47.39;101997.66;19864691;29;20112;-70
2023/04/29 21:15:35;;;;;;;0.80;0.60;;;;;;;20.72;47.37;102001.47;19865176;29;20062;-70
2023/04/29 21:25:37;;;;;;;0.73;0.65;;;;;;;20.69;47.17;102009.81;19864346;29;20055;-70
2023/04/29 21:35:40;;;;;;;0.75;0.60;;;;;;;20.59;47.23;101998.06;19872661;29;20063;-70
2023/04/29 21:45:43;;;;;;;1.00;0.73;;;;;;;20.47;46.87;101985.56;19880375;29;20415;-70
2023/04/29 21:55:45;;;;;;;1.17;0.60;;;;;;;20.61;47.04;102012.31;19885792;29;20137;-70
2023/04/29 22:05:47;;;;;;;0.73;0.60;;;;;;;20.60;46.94;102026.84;19877703;29;20062;-70
2023/04/29 22:15:48;;;;;;;0.90;0.70;;;;;;;20.59;46.73;102027.81;19874825;29;20054;-70
2023/04/29 22:25:50;;;;;;;0.95;0.70;;;;;;;20.57;46.65;102035.22;19876139;29;20104;-70
2023/04/29 22:35:52;;;;;;;0.70;0.70;;;;;;;20.55;46.46;102037.19;19873919;29;20119;-70
2023/04/29 22:45:55;;;;;;;0.80;0.57;;;;;;;20.54;46.36;102041.72;19870890;29;20121;-70
2023/04/29 22:55:57;;;;;;;1.80;0.60;;;;;;;20.52;46.16;102026.63;19874366;29;20120;-70
2023/04/29 23:05:59;;;;;;;1.25;0.70;;;;;;;20.44;46.15;102027.25;19870769;29;20118;-69
2023/04/29 23:16:02;;;;;;;0.65;0.60;;;;;;;20.48;45.95;102058.44;19870966;29;20055;-70
2023/04/29 23:26:04;;;;;;;1.02;0.73;;;;;;;20.45;45.86;102066.81;19872250;29;20070;-70
2023/04/29 23:36:06;;;;;;;1.27;0.60;;;;;;;20.43;45.75;102072.38;19870671;29;20051;-69
2023/04/29 23:46:08;;;;;;;0.90;0.63;;;;;;;20.40;45.64;102069.91;19871195;29;20070;-69
2023/04/29 23:56:10;;;;;;;0.90;0.73;;;;;;;20.37;45.58;102080.13;19869908;29;20057;-70
